createdAt,value
2022-08-16T00:01:33.653Z,18.60
2022-08-16T00:04:05.288Z,18.62
2022-08-16T00:06:33.756Z,18.61
2022-08-16T00:09:05.186Z,18.61
2022-08-16T00:11:34.142Z,18.59
2022-08-16T00:14:08.783Z,18.56
2022-08-16T00:17:06.071Z,18.54
2022-08-16T00:19:41.138Z,18.52
2022-08-16T00:22:13.780Z,18.48
2022-08-16T00:24:44.878Z,18.44
2022-08-16T00:27:17.570Z,18.42
2022-08-16T00:29:47.234Z,18.39
2022-08-16T00:32:17.947Z,18.38
2022-08-16T00:34:53.083Z,18.35
2022-08-16T00:37:24.387Z,18.31
2022-08-16T00:39:58.268Z,18.27
2022-08-16T00:42:31.409Z,18.24
2022-08-16T00:45:11.803Z,18.22
2022-08-16T00:47:49.049Z,18.18
2022-08-16T00:50:18.717Z,18.19
2022-08-16T00:52:50.980Z,18.17
2022-08-16T00:55:22.381Z,18.16
2022-08-16T00:57:59.640Z,18.16
2022-08-16T01:00:32.514Z,18.17
2022-08-16T01:03:04.197Z,18.14
2022-08-16T01:05:33.658Z,18.13
2022-08-16T01:08:02.824Z,18.13
2022-08-16T01:10:52.951Z,18.16
2022-08-16T01:13:26.677Z,18.17
2022-08-16T01:16:01.117Z,18.21
2022-08-16T01:18:40.013Z,18.23
2022-08-16T01:21:33.670Z,18.23
2022-08-16T01:24:52.224Z,18.24
2022-08-16T01:27:12.357Z,18.25
2022-08-16T01:29:59.021Z,18.28
2022-08-16T01:32:33.373Z,18.24
2022-08-16T01:35:21.381Z,18.22
2022-08-16T01:37:54.244Z,18.23
2022-08-16T01:40:27.839Z,18.23
2022-08-16T01:42:57.055Z,18.21
2022-08-16T01:45:39.665Z,18.19
2022-08-16T01:48:19.828Z,18.20
2022-08-16T01:51:09.407Z,18.16
2022-08-16T01:53:41.132Z,18.13
2022-08-16T01:56:24.407Z,18.07
2022-08-16T01:58:54.967Z,18.05
2022-08-16T02:01:26.138Z,18.02
2022-08-16T02:03:58.397Z,17.94
2022-08-16T02:06:34.748Z,17.88
2022-08-16T02:09:11.898Z,17.86
2022-08-16T02:11:48.218Z,17.84
2022-08-16T02:14:26.558Z,17.80
2022-08-16T02:16:56.298Z,17.80
2022-08-16T02:19:59.505Z,17.80
2022-08-16T02:22:34.479Z,17.77
2022-08-16T02:25:10.613Z,17.75
2022-08-16T02:27:42.031Z,17.70
2022-08-16T02:30:37.076Z,17.70
2022-08-16T02:33:03.291Z,17.70
2022-08-16T02:35:32.637Z,17.73
2022-08-16T02:38:01.852Z,17.77
2022-08-16T02:40:37.972Z,17.78
2022-08-16T02:43:08.682Z,17.78
2022-08-16T02:45:36.919Z,17.78
2022-08-16T02:48:29.435Z,17.81
2022-08-16T02:51:10.533Z,17.80
2022-08-16T02:53:43.227Z,17.82
2022-08-16T02:56:14.605Z,17.81
2022-08-16T02:58:45.385Z,17.82
2022-08-16T03:01:25.339Z,17.79
2022-08-16T03:04:39.255Z,17.82
2022-08-16T03:06:56.835Z,17.78
2022-08-16T03:09:28.522Z,17.83
2022-08-16T03:11:58.264Z,17.79
2022-08-16T03:14:30.477Z,17.77
2022-08-16T03:17:00.749Z,17.74
2022-08-16T03:19:46.829Z,17.72
2022-08-16T03:22:28.807Z,17.74
2022-08-16T03:25:00.838Z,17.73
2022-08-16T03:27:31.236Z,17.75
2022-08-16T03:30:16.235Z,17.71
2022-08-16T03:32:51.163Z,17.67
2022-08-16T03:35:21.354Z,17.69
2022-08-16T03:38:02.792Z,17.70
2022-08-16T03:40:34.870Z,17.71
2022-08-16T03:43:19.847Z,17.71
2022-08-16T03:45:52.517Z,17.75
2022-08-16T03:48:36.373Z,17.70
2022-08-16T03:51:08.829Z,17.67
2022-08-16T03:53:38.626Z,17.64
2022-08-16T03:56:18.556Z,17.61
2022-08-16T03:58:48.448Z,17.61
2022-08-16T04:01:21.138Z,17.53
2022-08-16T04:03:50.914Z,17.50
2022-08-16T04:06:22.272Z,17.48
2022-08-16T04:08:50.685Z,17.47
2022-08-16T04:11:19.323Z,17.50
2022-08-16T04:13:59.961Z,17.46
2022-08-16T04:16:37.931Z,17.44
2022-08-16T04:19:06.279Z,17.42
2022-08-16T04:21:45.989Z,17.44
2022-08-16T04:24:16.047Z,17.36
2022-08-16T04:26:46.499Z,17.38
2022-08-16T04:29:23.305Z,17.38
2022-08-16T04:31:58.168Z,17.31
2022-08-16T04:34:31.202Z,17.30
2022-08-16T04:37:01.851Z,17.25
2022-08-16T04:39:46.198Z,17.24
2022-08-16T04:42:16.488Z,17.24
2022-08-16T04:44:54.694Z,17.24
2022-08-16T04:47:32.932Z,17.22
2022-08-16T04:50:02.149Z,17.20
2022-08-16T04:52:34.830Z,17.18
2022-08-16T04:55:08.024Z,17.19
2022-08-16T04:57:37.418Z,17.19
2022-08-16T05:00:30.234Z,17.15
2022-08-16T05:03:07.472Z,17.15
2022-08-16T05:05:45.352Z,17.14
2022-08-16T05:08:28.894Z,17.20
2022-08-16T05:11:01.371Z,17.11
2022-08-16T05:13:41.112Z,17.08
2022-08-16T05:16:16.570Z,17.09
2022-08-16T05:18:52.121Z,17.09
2022-08-16T05:21:22.139Z,17.13
2022-08-16T05:23:51.552Z,17.15
2022-08-16T05:26:24.473Z,17.16
2022-08-16T05:28:56.223Z,17.18
2022-08-16T05:31:29.717Z,17.23
2022-08-16T05:34:03.641Z,17.26
2022-08-16T05:36:34.240Z,17.24
2022-08-16T05:39:07.612Z,17.22
2022-08-16T05:41:45.464Z,17.25
2022-08-16T05:44:22.920Z,17.26
2022-08-16T05:46:54.987Z,17.28
2022-08-16T05:49:38.657Z,17.29
2022-08-16T05:52:11.146Z,17.27
2022-08-16T05:54:45.942Z,17.32
2022-08-16T05:57:15.614Z,17.34
2022-08-16T05:59:43.755Z,17.32
2022-08-16T06:02:12.731Z,17.31
2022-08-16T06:04:45.188Z,17.30
2022-08-16T06:07:24.837Z,17.34
2022-08-16T06:09:59.712Z,17.29
2022-08-16T06:12:31.068Z,17.23
2022-08-16T06:15:01.933Z,17.11
2022-08-16T06:17:41.513Z,17.07
2022-08-16T06:20:23.182Z,17.05
2022-08-16T06:22:57.309Z,17.02
2022-08-16T06:25:35.464Z,17.00
2022-08-16T06:28:08.913Z,16.99
2022-08-16T06:30:44.089Z,16.96
2022-08-16T06:33:19.699Z,16.99
2022-08-16T06:35:55.208Z,17.01
2022-08-16T06:38:33.936Z,17.06
2022-08-16T06:41:05.603Z,17.02
2022-08-16T06:43:35.703Z,17.00
2022-08-16T06:46:06.231Z,16.98
2022-08-16T06:48:43.158Z,16.99
2022-08-16T06:51:14.819Z,17.00
2022-08-16T06:53:42.934Z,17.05
2022-08-16T06:56:14.708Z,17.09
2022-08-16T06:58:53.272Z,17.13
2022-08-16T07:01:46.262Z,17.16
2022-08-16T07:04:12.002Z,17.17
2022-08-16T07:06:43.600Z,17.21
2022-08-16T07:09:15.840Z,17.26
2022-08-16T07:11:47.419Z,17.35
2022-08-16T07:14:24.222Z,17.37
2022-08-16T07:16:57.932Z,17.42
2022-08-16T07:19:48.343Z,17.42
2022-08-16T07:22:37.548Z,17.39
2022-08-16T07:25:08.167Z,17.45
2022-08-16T07:27:37.135Z,17.48
2022-08-16T07:30:45.771Z,17.54
2022-08-16T07:32:56.764Z,17.58
2022-08-16T07:35:25.364Z,17.61
2022-08-16T07:37:55.004Z,17.66
2022-08-16T07:40:49.044Z,17.61
2022-08-16T07:43:11.994Z,17.62
2022-08-16T07:45:42.219Z,17.60
2022-08-16T07:48:12.387Z,17.54
2022-08-16T07:50:56.660Z,17.58
2022-08-16T07:53:31.331Z,17.63
2022-08-16T07:56:01.418Z,17.67
2022-08-16T07:58:36.194Z,17.71
2022-08-16T08:01:10.347Z,17.76
2022-08-16T08:03:44.934Z,17.85
2022-08-16T08:06:17.076Z,17.83
2022-08-16T08:08:51.018Z,17.85
2022-08-16T08:11:23.574Z,17.91
2022-08-16T08:13:52.759Z,17.97
2022-08-16T08:16:30.578Z,17.95
2022-08-16T08:19:02.192Z,18.02
2022-08-16T08:22:00.009Z,18.06
2022-08-16T08:24:22.345Z,18.26
2022-08-16T08:27:00.239Z,18.28
2022-08-16T08:29:36.884Z,18.29
2022-08-16T08:32:58.338Z,18.44
2022-08-16T08:35:00.491Z,18.62
2022-08-16T08:37:54.494Z,18.64
2022-08-16T08:40:24.677Z,18.60
2022-08-16T08:42:57.666Z,18.58
2022-08-16T08:45:47.282Z,18.60
2022-08-16T08:48:34.086Z,18.45
2022-08-16T08:51:09.166Z,18.27
2022-08-16T08:53:38.089Z,18.17
2022-08-16T08:56:22.474Z,18.03
2022-08-16T08:58:54.816Z,18.01
2022-08-16T09:01:31.586Z,18.00
2022-08-16T09:04:06.025Z,17.95
2022-08-16T09:06:35.185Z,17.92
2022-08-16T09:09:04.992Z,17.99
2022-08-16T09:11:40.993Z,18.15
2022-08-16T09:14:24.705Z,18.33
2022-08-16T09:17:01.597Z,18.43
2022-08-16T09:19:34.656Z,18.50
2022-08-16T09:22:03.370Z,18.58
2022-08-16T09:24:52.089Z,18.52
2022-08-16T09:27:23.624Z,18.55
2022-08-16T09:29:59.797Z,18.61
2022-08-16T09:32:30.636Z,18.66
2022-08-16T09:35:00.034Z,18.55
2022-08-16T09:37:29.738Z,18.56
2022-08-16T09:39:59.649Z,18.63
2022-08-16T09:42:30.836Z,18.61
2022-08-16T09:45:18.986Z,18.58
2022-08-16T09:47:56.746Z,18.62
2022-08-16T09:50:36.812Z,18.59
2022-08-16T09:53:15.207Z,18.49
2022-08-16T09:55:49.368Z,18.47
2022-08-16T09:58:37.814Z,18.44
2022-08-16T10:01:11.528Z,18.54
2022-08-16T10:04:02.794Z,18.63
2022-08-16T10:06:33.570Z,18.72
2022-08-16T10:09:05.982Z,18.86
2022-08-16T10:11:52.778Z,18.91
2022-08-16T10:14:24.901Z,19.02
2022-08-16T10:17:03.601Z,19.23
2022-08-16T10:19:33.552Z,19.29
2022-08-16T10:22:05.298Z,19.19
2022-08-16T10:24:34.842Z,19.09
2022-08-16T10:27:21.664Z,19.12
2022-08-16T10:30:01.242Z,19.01
2022-08-16T10:32:35.666Z,19.01
2022-08-16T10:35:10.090Z,18.96
2022-08-16T10:37:38.328Z,18.88
2022-08-16T10:40:29.012Z,18.85
2022-08-16T10:43:00.292Z,18.84
2022-08-16T10:45:37.014Z,18.77
2022-08-16T10:48:27.522Z,18.74
2022-08-16T10:50:58.327Z,18.73
2022-08-16T10:53:32.637Z,18.75
2022-08-16T10:56:02.616Z,18.64
2022-08-16T10:58:34.122Z,18.67
2022-08-16T11:03:57.317Z,18.67
2022-08-16T11:06:27.909Z,18.63
2022-08-16T11:14:35.376Z,18.64
2022-08-16T11:17:11.406Z,18.70
2022-08-16T11:22:47.173Z,18.78
2022-08-16T11:28:08.419Z,18.79
2022-08-16T11:30:38.734Z,18.75
2022-08-16T11:33:09.083Z,18.79
2022-08-16T11:35:44.077Z,18.83
2022-08-16T11:38:46.394Z,18.89
2022-08-16T11:41:04.341Z,18.89
2022-08-16T11:43:34.901Z,18.91
2022-08-16T11:46:44.190Z,18.93
2022-08-16T11:48:57.317Z,18.93
2022-08-16T11:51:25.952Z,18.84
2022-08-16T11:53:54.224Z,18.80
2022-08-16T11:56:39.621Z,18.80
2022-08-16T11:59:12.764Z,18.77
2022-08-16T12:01:44.380Z,18.77
2022-08-16T12:04:25.806Z,18.75
2022-08-16T12:06:54.582Z,18.75
2022-08-16T12:09:24.726Z,18.74
2022-08-16T12:11:53.970Z,18.68
2022-08-16T12:14:23.318Z,18.69
2022-08-16T12:16:55.479Z,18.71
2022-08-16T12:19:33.489Z,18.70
2022-08-16T12:22:05.648Z,18.65
2022-08-16T12:24:51.113Z,18.59
2022-08-16T12:27:23.114Z,18.58
2022-08-16T12:29:52.667Z,18.58
2022-08-16T12:32:37.492Z,18.62
2022-08-16T12:35:12.303Z,18.62
2022-08-16T12:37:42.122Z,18.65
2022-08-16T12:40:23.929Z,18.64
2022-08-16T12:42:58.841Z,18.68
2022-08-16T12:45:29.948Z,18.74
2022-08-16T12:48:33.586Z,18.78
2022-08-16T12:51:13.666Z,18.79
2022-08-16T12:53:49.739Z,18.80
2022-08-16T12:56:19.433Z,18.82
2022-08-16T12:58:51.985Z,18.81
2022-08-16T13:01:22.594Z,18.85
2022-08-16T13:04:08.260Z,18.90
2022-08-16T13:06:41.392Z,18.89
2022-08-16T13:09:20.501Z,18.93
2022-08-16T13:12:00.139Z,18.99
2022-08-16T13:14:33.823Z,19.00
2022-08-16T13:17:03.949Z,18.98
2022-08-16T13:20:03.360Z,18.95
2022-08-16T13:22:25.322Z,18.93
2022-08-16T13:24:54.410Z,18.93
2022-08-16T13:27:59.270Z,18.97
2022-08-16T13:30:36.345Z,19.01
2022-08-16T13:33:00.699Z,19.06
2022-08-16T13:35:34.343Z,19.12
2022-08-16T13:38:04.351Z,19.17
2022-08-16T13:40:34.843Z,19.20
2022-08-16T13:43:03.239Z,19.24
2022-08-16T13:45:50.268Z,19.35
2022-08-16T13:48:24.385Z,19.34
2022-08-16T13:50:54.749Z,19.39
2022-08-16T13:53:26.239Z,19.39
2022-08-16T13:55:58.568Z,19.36
2022-08-16T13:58:37.164Z,19.37
2022-08-16T14:01:17.987Z,19.35
2022-08-16T14:03:47.024Z,19.40
2022-08-16T14:06:15.398Z,19.45
2022-08-16T14:08:58.754Z,19.46
2022-08-16T14:11:27.872Z,19.51
2022-08-16T14:13:57.601Z,19.50
2022-08-16T14:16:33.677Z,19.48
2022-08-16T14:19:03.189Z,19.45
2022-08-16T14:21:34.833Z,19.47
2022-08-16T14:24:08.136Z,19.46
2022-08-16T14:26:52.757Z,19.41
2022-08-16T14:29:21.978Z,19.37
2022-08-16T14:31:53.577Z,19.31
2022-08-16T14:34:22.349Z,19.29
2022-08-16T14:36:54.322Z,19.28
2022-08-16T14:39:24.271Z,19.28
2022-08-16T14:41:53.698Z,19.29
2022-08-16T14:44:26.222Z,19.24
2022-08-16T14:46:55.371Z,19.22
2022-08-16T14:49:25.066Z,19.18
2022-08-16T14:51:53.340Z,19.14
2022-08-16T14:54:21.756Z,19.09
2022-08-16T14:56:55.269Z,19.02
2022-08-16T14:59:23.989Z,18.96
2022-08-16T15:01:59.132Z,18.99
2022-08-16T15:04:39.478Z,18.98
2022-08-16T15:07:11.311Z,18.99
2022-08-16T15:09:44.093Z,18.96
2022-08-16T15:12:33.848Z,18.96
2022-08-16T15:15:11.959Z,18.98
2022-08-16T15:17:55.816Z,19.02
2022-08-16T15:20:26.285Z,18.98
2022-08-16T15:22:55.123Z,18.97
2022-08-16T15:25:29.221Z,19.00
2022-08-16T15:28:04.558Z,19.00
2022-08-16T15:30:59.472Z,19.02
2022-08-16T15:33:26.911Z,19.03
2022-08-16T15:35:58.158Z,19.02
2022-08-16T15:38:58.098Z,19.07
2022-08-16T15:41:46.864Z,19.11
2022-08-16T15:44:22.393Z,19.06
2022-08-16T15:46:55.868Z,19.04
2022-08-16T15:49:37.252Z,19.02
2022-08-16T15:52:15.135Z,19.01
2022-08-16T15:54:53.191Z,19.00
2022-08-16T15:57:24.687Z,18.97
2022-08-16T15:59:57.762Z,18.96
2022-08-16T16:02:35.305Z,19.01
2022-08-16T16:05:09.821Z,19.02
2022-08-16T16:07:56.107Z,18.98
2022-08-16T16:10:29.723Z,18.96
2022-08-16T16:12:59.820Z,18.91
2022-08-16T16:15:33.294Z,18.90
2022-08-16T16:18:09.947Z,18.88
2022-08-16T16:20:40.051Z,18.89
2022-08-16T16:23:11.071Z,18.93
2022-08-16T16:25:43.808Z,18.88
2022-08-16T16:29:05.314Z,18.88
2022-08-16T16:31:07.173Z,18.85
2022-08-16T16:33:39.800Z,18.86
2022-08-16T16:36:09.558Z,18.90
2022-08-16T16:38:39.220Z,18.92
2022-08-16T16:41:11.150Z,18.93
2022-08-16T16:43:41.355Z,18.99
2022-08-16T16:46:40.124Z,19.01
2022-08-16T16:49:03.969Z,19.02
2022-08-16T16:51:40.763Z,19.04
2022-08-16T16:54:13.176Z,19.00
2022-08-16T16:56:49.746Z,18.99
2022-08-16T16:59:18.847Z,18.90
2022-08-16T17:01:59.958Z,18.93
2022-08-16T17:04:39.656Z,18.89
2022-08-16T17:07:10.942Z,18.85
2022-08-16T17:09:41.381Z,18.86
2022-08-16T17:12:12.285Z,18.88
2022-08-16T17:14:58.976Z,18.85
2022-08-16T17:17:29.653Z,18.80
2022-08-16T17:19:59.296Z,18.79
2022-08-16T17:22:32.812Z,18.80
2022-08-16T17:25:02.042Z,18.80
2022-08-16T17:27:32.573Z,18.80
2022-08-16T17:30:02.889Z,18.80
2022-08-16T17:32:50.410Z,18.78
2022-08-16T17:35:34.023Z,18.75
2022-08-16T17:38:06.128Z,18.74
2022-08-16T17:40:47.213Z,18.70
2022-08-16T17:43:30.825Z,18.68
2022-08-16T17:45:59.435Z,18.64
2022-08-16T17:48:31.183Z,18.61
2022-08-16T17:51:00.491Z,18.58
2022-08-16T17:53:28.826Z,18.57
2022-08-16T17:55:57.381Z,18.60
2022-08-16T17:58:26.190Z,18.62
2022-08-16T18:00:56.756Z,18.58
2022-08-16T18:04:02.993Z,18.59
2022-08-16T18:06:18.799Z,18.60
2022-08-16T18:08:50.094Z,18.57
2022-08-16T18:11:25.849Z,18.57
2022-08-16T18:13:56.551Z,18.56
2022-08-16T18:16:25.568Z,18.56
2022-08-16T18:18:53.828Z,18.59
2022-08-16T18:21:41.194Z,18.53
2022-08-16T18:24:09.796Z,18.54
2022-08-16T18:26:39.248Z,18.51
2022-08-16T18:29:08.533Z,18.50
2022-08-16T18:31:36.748Z,18.48
2022-08-16T18:34:06.382Z,18.48
2022-08-16T18:36:35.901Z,18.46
2022-08-16T18:39:04.247Z,18.45
2022-08-16T18:41:37.202Z,18.42
2022-08-16T18:44:24.743Z,18.40
2022-08-16T18:46:55.701Z,18.33
2022-08-16T18:49:24.036Z,18.27
2022-08-16T18:51:57.733Z,18.28
2022-08-16T18:54:26.751Z,18.25
2022-08-16T18:56:57.768Z,18.22
2022-08-16T18:59:27.165Z,18.18
2022-08-16T19:02:00.121Z,18.16
2022-08-16T19:04:56.535Z,18.13
2022-08-16T19:07:31.245Z,18.08
2022-08-16T19:10:01.390Z,18.07
2022-08-16T19:12:38.539Z,18.05
2022-08-16T19:15:15.979Z,18.07
2022-08-16T19:17:45.638Z,17.99
2022-08-16T19:20:15.663Z,17.94
2022-08-16T19:23:05.865Z,17.92
2022-08-16T19:25:47.395Z,17.88
2022-08-16T19:28:49.841Z,17.82
2022-08-16T19:31:10.933Z,17.81
2022-08-16T19:33:39.654Z,17.79
2022-08-16T19:36:08.259Z,17.80
2022-08-16T19:38:46.752Z,17.79
2022-08-16T19:41:16.205Z,17.79
2022-08-16T19:43:44.484Z,17.78
2022-08-16T19:46:12.688Z,17.77
2022-08-16T19:48:40.898Z,17.78
2022-08-16T19:51:10.353Z,17.68
2022-08-16T19:53:38.678Z,17.62
2022-08-16T19:56:08.408Z,17.59
2022-08-16T19:58:36.993Z,17.56
2022-08-16T20:01:05.263Z,17.56
2022-08-16T20:03:33.453Z,17.51
2022-08-16T20:06:01.621Z,17.50
2022-08-16T20:08:30.493Z,17.44
2022-08-16T20:10:58.651Z,17.37
2022-08-16T20:13:28.492Z,17.30
2022-08-16T20:15:56.974Z,17.25
2022-08-16T20:18:25.777Z,17.16
2022-08-16T20:20:55.874Z,17.16
2022-08-16T20:23:25.198Z,17.10
2022-08-16T20:25:55.960Z,17.06
2022-08-16T20:28:33.409Z,17.05
2022-08-16T20:31:14.196Z,16.96
2022-08-16T20:33:42.391Z,16.88
2022-08-16T20:36:16.362Z,16.78
2022-08-16T20:38:47.621Z,16.78
2022-08-16T20:41:16.493Z,16.77
2022-08-16T20:43:45.468Z,16.77
2022-08-16T20:46:15.459Z,16.74
2022-08-16T20:48:44.150Z,16.71
2022-08-16T20:51:12.837Z,16.70
2022-08-16T20:53:42.074Z,16.67
2022-08-16T20:56:11.650Z,16.60
2022-08-16T20:58:40.248Z,16.53
2022-08-16T21:01:09.193Z,16.52
2022-08-16T21:03:39.332Z,16.49
2022-08-16T21:06:08.098Z,16.44
2022-08-16T21:08:51.472Z,16.41
2022-08-16T21:11:23.684Z,16.36
2022-08-16T21:13:55.378Z,16.32
2022-08-16T21:16:29.372Z,16.31
2022-08-16T21:19:00.545Z,16.29
2022-08-16T21:21:33.491Z,16.25
2022-08-16T21:24:02.130Z,16.20
2022-08-16T21:26:30.336Z,16.25
2022-08-16T21:28:58.513Z,16.18
2022-08-16T21:31:26.916Z,16.17
2022-08-16T21:33:55.803Z,16.18
2022-08-16T21:36:35.665Z,16.14
2022-08-16T21:39:06.681Z,16.14
2022-08-16T21:41:35.523Z,16.11
2022-08-16T21:44:04.038Z,16.06
2022-08-16T21:46:33.761Z,16.06
2022-08-16T21:49:01.958Z,16.07
2022-08-16T21:51:31.645Z,16.05
2022-08-16T21:53:59.917Z,16.06
2022-08-16T21:56:29.449Z,16.05
2022-08-16T21:58:57.716Z,16.06
2022-08-16T22:01:26.751Z,15.99
2022-08-16T22:04:01.589Z,15.93
2022-08-16T22:06:45.028Z,15.93
2022-08-16T22:09:16.623Z,15.94
2022-08-16T22:11:45.498Z,15.98
2022-08-16T22:14:13.924Z,15.99
2022-08-16T22:16:43.625Z,16.00
2022-08-16T22:19:13.354Z,16.00
2022-08-16T22:21:41.982Z,15.99
2022-08-16T22:24:11.582Z,15.93
2022-08-16T22:26:43.332Z,15.93
2022-08-16T22:29:14.151Z,15.93
2022-08-16T22:31:43.362Z,15.92
2022-08-16T22:34:11.579Z,15.89
2022-08-16T22:36:40.158Z,15.86
2022-08-16T22:39:10.449Z,15.85
2022-08-16T22:41:42.240Z,15.86
2022-08-16T22:44:10.802Z,15.85
2022-08-16T22:46:39.170Z,15.86
2022-08-16T22:49:08.374Z,15.85
2022-08-16T22:51:37.971Z,15.89
2022-08-16T22:54:44.329Z,15.85
2022-08-16T22:56:57.839Z,15.86
2022-08-16T22:59:26.311Z,15.81
2022-08-16T23:01:54.884Z,15.85
2022-08-16T23:04:24.900Z,15.83
2022-08-16T23:06:53.413Z,15.82
2022-08-16T23:09:21.885Z,15.80
2022-08-16T23:11:50.155Z,15.77
2022-08-16T23:14:20.366Z,15.76
2022-08-16T23:16:48.462Z,15.77
2022-08-16T23:19:17.982Z,15.80
2022-08-16T23:21:49.460Z,15.80
2022-08-16T23:24:19.415Z,15.74
2022-08-16T23:26:49.403Z,15.78
2022-08-16T23:29:23.571Z,15.75
2022-08-16T23:31:54.603Z,15.72
2022-08-16T23:34:22.877Z,15.68
2022-08-16T23:36:51.188Z,15.64
2022-08-16T23:39:19.389Z,15.60
2022-08-16T23:41:47.531Z,15.58
2022-08-16T23:44:57.076Z,15.54
2022-08-16T23:47:06.468Z,15.50
2022-08-16T23:49:59.217Z,15.47
2022-08-16T23:52:53.120Z,15.46
2022-08-16T23:55:11.686Z,15.47
2022-08-16T23:57:39.942Z,15.47
